sensor_id;sensor_type;location;lat;lon;timestamp;P1;durP1;ratioP1;P2;durP2;ratioP2
21432;SDS011;18592;49.708;10.900;2023-08-17T00:07:35;4.72;;;4.32;;
21432;SDS011;18592;49.708;10.900;2023-08-17T00:09:36;4.75;;;4.30;;
21432;SDS011;18592;49.708;10.900;2023-08-17T00:11:45;4.50;;;4.10;;
21432;SDS011;18592;49.708;10.900;2023-08-17T00:13:46;4.47;;;3.40;;
21432;SDS011;18592;49.708;10.900;2023-08-17T00:15:46;3.75;;;3.45;;
21432;SDS011;18592;49.708;10.900;2023-08-17T00:17:46;3.85;;;3.50;;
21432;SDS011;18592;49.708;10.900;2023-08-17T00:19:47;3.78;;;3.38;;
21432;SDS011;18592;49.708;10.900;2023-08-17T00:21:47;4.75;;;3.42;;
21432;SDS011;18592;49.708;10.900;2023-08-17T00:23:47;3.92;;;3.50;;
21432;SDS011;18592;49.708;10.900;2023-08-17T00:25:48;3.25;;;2.97;;
21432;SDS011;18592;49.708;10.900;2023-08-17T00:27:48;3.42;;;3.13;;
21432;SDS011;18592;49.708;10.900;2023-08-17T00:29:51;3.20;;;2.90;;
21432;SDS011;18592;49.708;10.900;2023-08-17T00:31:51;4.00;;;3.35;;
21432;SDS011;18592;49.708;10.900;2023-08-17T00:33:52;3.42;;;3.08;;
21432;SDS011;18592;49.708;10.900;2023-08-17T00:35:53;3.35;;;3.05;;
21432;SDS011;18592;49.708;10.900;2023-08-17T00:37:53;3.30;;;3.00;;
21432;SDS011;18592;49.708;10.900;2023-08-17T00:39:53;3.90;;;3.22;;
21432;SDS011;18592;49.708;10.900;2023-08-17T00:41:54;3.47;;;3.17;;
21432;SDS011;18592;49.708;10.900;2023-08-17T00:43:54;3.38;;;3.10;;
21432;SDS011;18592;49.708;10.900;2023-08-17T00:45:55;5.43;;;3.47;;
21432;SDS011;18592;49.708;10.900;2023-08-17T00:47:56;4.28;;;3.20;;
21432;SDS011;18592;49.708;10.900;2023-08-17T00:49:59;5.00;;;4.20;;
21432;SDS011;18592;49.708;10.900;2023-08-17T00:52:01;4.68;;;3.28;;
21432;SDS011;18592;49.708;10.900;2023-08-17T00:54:04;5.28;;;3.45;;
21432;SDS011;18592;49.708;10.900;2023-08-17T00:56:04;4.78;;;3.42;;
21432;SDS011;18592;49.708;10.900;2023-08-17T00:58:05;4.10;;;3.42;;
21432;SDS011;18592;49.708;10.900;2023-08-17T01:00:08;4.85;;;3.45;;
21432;SDS011;18592;49.708;10.900;2023-08-17T01:02:11;3.95;;;3.58;;
21432;SDS011;18592;49.708;10.900;2023-08-17T01:04:12;3.90;;;3.45;;
21432;SDS011;18592;49.708;10.900;2023-08-17T01:06:17;3.70;;;3.40;;
21432;SDS011;18592;49.708;10.900;2023-08-17T01:08:18;4.72;;;4.20;;
21432;SDS011;18592;49.708;10.900;2023-08-17T01:10:31;4.93;;;4.40;;
21432;SDS011;18592;49.708;10.900;2023-08-17T01:15:22;6.82;;;6.13;;
21432;SDS011;18592;49.708;10.900;2023-08-17T01:17:38;7.00;;;6.28;;
21432;SDS011;18592;49.708;10.900;2023-08-17T01:19:42;6.75;;;6.07;;
21432;SDS011;18592;49.708;10.900;2023-08-17T01:21:47;6.43;;;5.82;;
21432;SDS011;18592;49.708;10.900;2023-08-17T01:34:46;4.85;;;4.32;;
21432;SDS011;18592;49.708;10.900;2023-08-17T01:36:53;6.88;;;4.72;;
21432;SDS011;18592;49.708;10.900;2023-08-17T01:38:56;4.93;;;4.53;;
21432;SDS011;18592;49.708;10.900;2023-08-17T01:40:57;5.20;;;4.07;;
21432;SDS011;18592;49.708;10.900;2023-08-17T01:43:01;4.38;;;3.85;;
21432;SDS011;18592;49.708;10.900;2023-08-17T01:45:03;4.47;;;4.07;;
21432;SDS011;18592;49.708;10.900;2023-08-17T01:47:04;4.05;;;3.65;;
21432;SDS011;18592;49.708;10.900;2023-08-17T01:49:04;5.20;;;4.10;;
21432;SDS011;18592;49.708;10.900;2023-08-17T01:51:04;4.13;;;3.72;;
21432;SDS011;18592;49.708;10.900;2023-08-17T01:53:05;3.78;;;3.38;;
21432;SDS011;18592;49.708;10.900;2023-08-17T01:55:07;4.10;;;3.70;;
21432;SDS011;18592;49.708;10.900;2023-08-17T01:57:21;3.83;;;3.10;;
21432;SDS011;18592;49.708;10.900;2023-08-17T01:59:21;4.15;;;3.22;;
21432;SDS011;18592;49.708;10.900;2023-08-17T02:01:22;3.83;;;3.53;;
21432;SDS011;18592;49.708;10.900;2023-08-17T02:03:22;3.83;;;3.53;;
21432;SDS011;18592;49.708;10.900;2023-08-17T02:05:23;3.35;;;3.05;;
21432;SDS011;18592;49.708;10.900;2023-08-17T02:07:23;3.45;;;3.15;;
21432;SDS011;18592;49.708;10.900;2023-08-17T02:09:25;3.60;;;2.88;;
21432;SDS011;18592;49.708;10.900;2023-08-17T02:11:25;2.78;;;2.45;;
21432;SDS011;18592;49.708;10.900;2023-08-17T02:13:27;2.90;;;2.30;;
21432;SDS011;18592;49.708;10.900;2023-08-17T02:15:28;2.28;;;2.08;;
21432;SDS011;18592;49.708;10.900;2023-08-17T02:17:28;2.55;;;2.35;;
21432;SDS011;18592;49.708;10.900;2023-08-17T02:19:29;3.28;;;2.22;;
21432;SDS011;18592;49.708;10.900;2023-08-17T02:21:29;1.85;;;1.65;;
21432;SDS011;18592;49.708;10.900;2023-08-17T02:23:30;3.17;;;1.98;;
21432;SDS011;18592;49.708;10.900;2023-08-17T02:25:30;1.80;;;1.70;;
21432;SDS011;18592;49.708;10.900;2023-08-17T02:27:55;2.85;;;2.00;;
21432;SDS011;18592;49.708;10.900;2023-08-17T02:29:55;2.35;;;1.90;;
21432;SDS011;18592;49.708;10.900;2023-08-17T02:31:56;1.77;;;1.67;;
21432;SDS011;18592;49.708;10.900;2023-08-17T02:33:59;1.75;;;1.65;;
21432;SDS011;18592;49.708;10.900;2023-08-17T02:36:05;2.10;;;1.90;;
21432;SDS011;18592;49.708;10.900;2023-08-17T02:38:05;2.13;;;1.70;;
21432;SDS011;18592;49.708;10.900;2023-08-17T02:40:06;2.33;;;1.98;;
21432;SDS011;18592;49.708;10.900;2023-08-17T02:42:07;1.70;;;1.60;;
21432;SDS011;18592;49.708;10.900;2023-08-17T02:44:07;2.13;;;1.90;;
21432;SDS011;18592;49.708;10.900;2023-08-17T02:46:08;2.53;;;2.20;;
21432;SDS011;18592;49.708;10.900;2023-08-17T02:48:11;5.20;;;2.97;;
21432;SDS011;18592;49.708;10.900;2023-08-17T02:50:12;4.18;;;3.78;;
21432;SDS011;18592;49.708;10.900;2023-08-17T02:52:12;7.50;;;4.68;;
21432;SDS011;18592;49.708;10.900;2023-08-17T02:54:28;5.05;;;4.53;;
21432;SDS011;18592;49.708;10.900;2023-08-17T02:56:28;4.13;;;3.83;;
21432;SDS011;18592;49.708;10.900;2023-08-17T02:58:28;4.20;;;3.80;;
21432;SDS011;18592;49.708;10.900;2023-08-17T03:00:29;4.65;;;3.28;;
21432;SDS011;18592;49.708;10.900;2023-08-17T03:02:31;3.00;;;2.70;;
21432;SDS011;18592;49.708;10.900;2023-08-17T03:04:31;2.72;;;2.53;;
21432;SDS011;18592;49.708;10.900;2023-08-17T03:06:34;2.25;;;2.05;;
21432;SDS011;18592;49.708;10.900;2023-08-17T03:08:34;2.83;;;2.47;;
21432;SDS011;18592;49.708;10.900;2023-08-17T03:10:35;4.38;;;2.63;;
21432;SDS011;18592;49.708;10.900;2023-08-17T03:12:38;2.42;;;2.22;;
21432;SDS011;18592;49.708;10.900;2023-08-17T03:14:38;2.00;;;1.80;;
21432;SDS011;18592;49.708;10.900;2023-08-17T03:16:38;2.08;;;1.90;;
21432;SDS011;18592;49.708;10.900;2023-08-17T03:18:54;2.10;;;1.90;;
21432;SDS011;18592;49.708;10.900;2023-08-17T03:20:54;2.83;;;2.08;;
21432;SDS011;18592;49.708;10.900;2023-08-17T03:22:55;3.28;;;2.20;;
21432;SDS011;18592;49.708;10.900;2023-08-17T03:24:57;3.42;;;2.17;;
21432;SDS011;18592;49.708;10.900;2023-08-17T03:26:57;2.60;;;2.40;;
21432;SDS011;18592;49.708;10.900;2023-08-17T03:28:59;2.60;;;2.10;;
21432;SDS011;18592;49.708;10.900;2023-08-17T03:31:01;2.03;;;1.83;;
21432;SDS011;18592;49.708;10.900;2023-08-17T03:33:04;2.47;;;2.28;;
21432;SDS011;18592;49.708;10.900;2023-08-17T03:35:06;2.20;;;2.00;;
21432;SDS011;18592;49.708;10.900;2023-08-17T03:37:07;3.83;;;2.75;;
21432;SDS011;18592;49.708;10.900;2023-08-17T03:39:07;4.68;;;3.45;;
21432;SDS011;18592;49.708;10.900;2023-08-17T03:41:09;6.80;;;6.10;;
21432;SDS011;18592;49.708;10.900;2023-08-17T03:43:10;12.55;;;9.38;;
21432;SDS011;18592;49.708;10.900;2023-08-17T03:45:11;12.00;;;9.15;;
21432;SDS011;18592;49.708;10.900;2023-08-17T03:47:11;10.98;;;9.38;;
21432;SDS011;18592;49.708;10.900;2023-08-17T03:49:12;11.38;;;10.00;;
21432;SDS011;18592;49.708;10.900;2023-08-17T03:51:13;11.55;;;10.35;;
21432;SDS011;18592;49.708;10.900;2023-08-17T03:53:13;11.43;;;9.93;;
21432;SDS011;18592;49.708;10.900;2023-08-17T03:55:14;11.35;;;10.15;;
21432;SDS011;18592;49.708;10.900;2023-08-17T03:57:14;11.15;;;9.05;;
21432;SDS011;18592;49.708;10.900;2023-08-17T03:59:15;11.10;;;9.93;;
21432;SDS011;18592;49.708;10.900;2023-08-17T04:01:15;10.40;;;9.18;;
21432;SDS011;18592;49.708;10.900;2023-08-17T04:03:16;8.80;;;7.90;;
21432;SDS011;18592;49.708;10.900;2023-08-17T04:05:17;8.10;;;7.30;;
21432;SDS011;18592;49.708;10.900;2023-08-17T04:07:21;6.88;;;6.18;;
21432;SDS011;18592;49.708;10.900;2023-08-17T04:09:22;6.13;;;5.50;;
21432;SDS011;18592;49.708;10.900;2023-08-17T04:11:23;4.95;;;4.45;;
21432;SDS011;18592;49.708;10.900;2023-08-17T04:13:24;4.57;;;4.05;;
21432;SDS011;18592;49.708;10.900;2023-08-17T04:15:24;4.05;;;3.38;;
21432;SDS011;18592;49.708;10.900;2023-08-17T04:17:25;3.10;;;2.80;;
21432;SDS011;18592;49.708;10.900;2023-08-17T04:19:25;3.85;;;3.10;;
21432;SDS011;18592;49.708;10.900;2023-08-17T04:21:26;3.33;;;2.55;;
21432;SDS011;18592;49.708;10.900;2023-08-17T04:23:27;3.25;;;2.65;;
21432;SDS011;18592;49.708;10.900;2023-08-17T04:25:28;2.35;;;2.15;;
21432;SDS011;18592;49.708;10.900;2023-08-17T04:27:29;2.60;;;2.40;;
21432;SDS011;18592;49.708;10.900;2023-08-17T04:29:30;2.38;;;2.15;;
21432;SDS011;18592;49.708;10.900;2023-08-17T04:31:31;2.60;;;2.40;;
21432;SDS011;18592;49.708;10.900;2023-08-17T04:33:35;2.42;;;2.10;;
21432;SDS011;18592;49.708;10.900;2023-08-17T04:35:35;2.50;;;2.30;;
21432;SDS011;18592;49.708;10.900;2023-08-17T04:37:36;2.22;;;2.03;;
21432;SDS011;18592;49.708;10.900;2023-08-17T04:39:37;3.60;;;2.30;;
21432;SDS011;18592;49.708;10.900;2023-08-17T04:41:38;3.47;;;2.50;;
21432;SDS011;18592;49.708;10.900;2023-08-17T04:43:41;3.85;;;3.22;;
21432;SDS011;18592;49.708;10.900;2023-08-17T04:45:43;4.25;;;3.83;;
21432;SDS011;18592;49.708;10.900;2023-08-17T04:47:45;4.75;;;4.30;;
21432;SDS011;18592;49.708;10.900;2023-08-17T04:49:46;4.63;;;4.22;;
21432;SDS011;18592;49.708;10.900;2023-08-17T04:51:46;3.85;;;3.45;;
21432;SDS011;18592;49.708;10.900;2023-08-17T04:53:47;4.32;;;3.53;;
21432;SDS011;18592;49.708;10.900;2023-08-17T04:55:47;3.60;;;3.30;;
21432;SDS011;18592;49.708;10.900;2023-08-17T04:57:48;3.22;;;2.92;;
21432;SDS011;18592;49.708;10.900;2023-08-17T04:59:48;3.90;;;3.03;;
21432;SDS011;18592;49.708;10.900;2023-08-17T05:01:51;4.95;;;3.15;;
21432;SDS011;18592;49.708;10.900;2023-08-17T05:03:51;3.33;;;3.03;;
21432;SDS011;18592;49.708;10.900;2023-08-17T05:05:52;4.65;;;3.22;;
21432;SDS011;18592;49.708;10.900;2023-08-17T05:07:53;5.03;;;3.20;;
21432;SDS011;18592;49.708;10.900;2023-08-17T05:09:53;4.20;;;3.28;;
21432;SDS011;18592;49.708;10.900;2023-08-17T05:11:54;3.50;;;2.85;;
21432;SDS011;18592;49.708;10.900;2023-08-17T05:13:55;3.53;;;3.22;;
21432;SDS011;18592;49.708;10.900;2023-08-17T05:15:55;5.47;;;3.10;;
21432;SDS011;18592;49.708;10.900;2023-08-17T05:17:56;3.95;;;2.72;;
21432;SDS011;18592;49.708;10.900;2023-08-17T05:19:57;3.75;;;2.90;;
21432;SDS011;18592;49.708;10.900;2023-08-17T05:21:58;3.00;;;2.80;;
21432;SDS011;18592;49.708;10.900;2023-08-17T05:23:59;3.45;;;2.78;;
21432;SDS011;18592;49.708;10.900;2023-08-17T05:26:03;3.20;;;2.72;;
21432;SDS011;18592;49.708;10.900;2023-08-17T05:28:04;3.03;;;2.72;;
21432;SDS011;18592;49.708;10.900;2023-08-17T05:30:23;2.95;;;2.50;;
21432;SDS011;18592;49.708;10.900;2023-08-17T05:32:25;2.80;;;2.60;;
21432;SDS011;18592;49.708;10.900;2023-08-17T05:34:26;2.50;;;2.30;;
21432;SDS011;18592;49.708;10.900;2023-08-17T05:36:27;3.00;;;2.80;;
21432;SDS011;18592;49.708;10.900;2023-08-17T05:38:28;3.30;;;2.75;;
21432;SDS011;18592;49.708;10.900;2023-08-17T05:40:31;5.10;;;3.20;;
21432;SDS011;18592;49.708;10.900;2023-08-17T05:42:32;3.30;;;3.00;;
21432;SDS011;18592;49.708;10.900;2023-08-17T05:44:32;3.10;;;2.90;;
21432;SDS011;18592;49.708;10.900;2023-08-17T05:46:33;4.22;;;2.80;;
21432;SDS011;18592;49.708;10.900;2023-08-17T05:48:34;3.13;;;2.83;;
21432;SDS011;18592;49.708;10.900;2023-08-17T05:50:34;3.63;;;3.33;;
21432;SDS011;18592;49.708;10.900;2023-08-17T05:52:40;3.10;;;2.80;;
21432;SDS011;18592;49.708;10.900;2023-08-17T05:54:41;4.57;;;3.13;;
21432;SDS011;18592;49.708;10.900;2023-08-17T05:56:42;3.78;;;2.95;;
21432;SDS011;18592;49.708;10.900;2023-08-17T05:58:46;3.80;;;2.97;;
21432;SDS011;18592;49.708;10.900;2023-08-17T06:00:47;3.63;;;3.30;;
21432;SDS011;18592;49.708;10.900;2023-08-17T06:02:47;3.38;;;3.00;;
21432;SDS011;18592;49.708;10.900;2023-08-17T06:04:51;4.22;;;3.20;;
21432;SDS011;18592;49.708;10.900;2023-08-17T06:06:51;3.53;;;3.03;;
21432;SDS011;18592;49.708;10.900;2023-08-17T06:08:52;3.45;;;3.15;;
21432;SDS011;18592;49.708;10.900;2023-08-17T06:10:52;3.80;;;3.17;;
21432;SDS011;18592;49.708;10.900;2023-08-17T06:12:53;3.65;;;3.20;;
21432;SDS011;18592;49.708;10.900;2023-08-17T06:14:55;3.78;;;3.47;;
21432;SDS011;18592;49.708;10.900;2023-08-17T06:16:55;3.92;;;3.53;;
21432;SDS011;18592;49.708;10.900;2023-08-17T06:18:55;4.03;;;3.42;;
21432;SDS011;18592;49.708;10.900;2023-08-17T06:20:56;3.58;;;3.28;;
21432;SDS011;18592;49.708;10.900;2023-08-17T06:22:56;5.40;;;3.28;;
21432;SDS011;18592;49.708;10.900;2023-08-17T06:24:57;3.42;;;3.13;;
21432;SDS011;18592;49.708;10.900;2023-08-17T06:26:57;4.40;;;3.60;;
21432;SDS011;18592;49.708;10.900;2023-08-17T06:28:57;3.80;;;3.40;;
21432;SDS011;18592;49.708;10.900;2023-08-17T06:30:58;4.80;;;3.50;;
21432;SDS011;18592;49.708;10.900;2023-08-17T06:32:58;3.72;;;3.42;;
21432;SDS011;18592;49.708;10.900;2023-08-17T06:34:59;4.45;;;3.85;;
21432;SDS011;18592;49.708;10.900;2023-08-17T06:37:00;3.80;;;3.33;;
21432;SDS011;18592;49.708;10.900;2023-08-17T06:39:03;4.65;;;3.83;;
21432;SDS011;18592;49.708;10.900;2023-08-17T06:41:17;4.20;;;3.80;;
21432;SDS011;18592;49.708;10.900;2023-08-17T06:43:17;4.13;;;3.78;;
21432;SDS011;18592;49.708;10.900;2023-08-17T06:45:19;4.05;;;3.65;;
21432;SDS011;18592;49.708;10.900;2023-08-17T06:47:20;4.15;;;3.75;;
21432;SDS011;18592;49.708;10.900;2023-08-17T06:49:20;3.75;;;3.45;;
21432;SDS011;18592;49.708;10.900;2023-08-17T06:51:20;4.10;;;3.70;;
21432;SDS011;18592;49.708;10.900;2023-08-17T06:53:21;4.25;;;3.85;;
21432;SDS011;18592;49.708;10.900;2023-08-17T06:55:21;4.40;;;4.00;;
21432;SDS011;18592;49.708;10.900;2023-08-17T06:57:22;4.15;;;3.63;;
21432;SDS011;18592;49.708;10.900;2023-08-17T06:59:22;3.80;;;3.45;;
21432;SDS011;18592;49.708;10.900;2023-08-17T07:01:23;4.40;;;4.00;;
21432;SDS011;18592;49.708;10.900;2023-08-17T07:03:30;4.20;;;3.78;;
21432;SDS011;18592;49.708;10.900;2023-08-17T07:05:31;4.30;;;3.90;;
21432;SDS011;18592;49.708;10.900;2023-08-17T07:07:31;5.10;;;3.88;;
21432;SDS011;18592;49.708;10.900;2023-08-17T07:09:31;4.85;;;4.13;;
21432;SDS011;18592;49.708;10.900;2023-08-17T07:11:40;4.68;;;4.22;;
21432;SDS011;18592;49.708;10.900;2023-08-17T07:13:40;4.25;;;3.85;;
21432;SDS011;18592;49.708;10.900;2023-08-17T07:15:41;4.82;;;4.15;;
21432;SDS011;18592;49.708;10.900;2023-08-17T07:17:41;4.60;;;4.20;;
21432;SDS011;18592;49.708;10.900;2023-08-17T07:19:42;5.30;;;4.80;;
21432;SDS011;18592;49.708;10.900;2023-08-17T07:21:42;4.65;;;4.20;;
21432;SDS011;18592;49.708;10.900;2023-08-17T07:23:43;4.53;;;4.13;;
21432;SDS011;18592;49.708;10.900;2023-08-17T07:25:45;6.40;;;4.85;;
21432;SDS011;18592;49.708;10.900;2023-08-17T07:27:46;5.38;;;4.38;;
21432;SDS011;18592;49.708;10.900;2023-08-17T07:29:46;5.80;;;5.10;;
21432;SDS011;18592;49.708;10.900;2023-08-17T07:31:46;5.63;;;5.07;;
21432;SDS011;18592;49.708;10.900;2023-08-17T07:33:47;5.35;;;4.85;;
21432;SDS011;18592;49.708;10.900;2023-08-17T07:35:47;5.40;;;4.93;;
21432;SDS011;18592;49.708;10.900;2023-08-17T07:37:48;5.22;;;4.82;;
21432;SDS011;18592;49.708;10.900;2023-08-17T07:39:48;5.25;;;4.85;;
21432;SDS011;18592;49.708;10.900;2023-08-17T07:41:48;5.55;;;5.10;;
21432;SDS011;18592;49.708;10.900;2023-08-17T07:43:49;5.43;;;5.00;;
21432;SDS011;18592;49.708;10.900;2023-08-17T07:45:53;5.40;;;4.97;;
21432;SDS011;18592;49.708;10.900;2023-08-17T07:47:54;5.60;;;5.07;;
21432;SDS011;18592;49.708;10.900;2023-08-17T07:49:55;8.07;;;5.80;;
21432;SDS011;18592;49.708;10.900;2023-08-17T07:51:57;5.68;;;5.18;;
21432;SDS011;18592;49.708;10.900;2023-08-17T07:53:58;5.80;;;5.30;;
21432;SDS011;18592;49.708;10.900;2023-08-17T07:55:59;5.05;;;4.55;;
21432;SDS011;18592;49.708;10.900;2023-08-17T07:58:09;5.38;;;4.97;;
21432;SDS011;18592;49.708;10.900;2023-08-17T08:00:09;5.90;;;5.30;;
21432;SDS011;18592;49.708;10.900;2023-08-17T08:02:10;5.63;;;5.10;;
21432;SDS011;18592;49.708;10.900;2023-08-17T08:04:10;5.57;;;5.07;;
21432;SDS011;18592;49.708;10.900;2023-08-17T08:06:11;5.65;;;5.25;;
21432;SDS011;18592;49.708;10.900;2023-08-17T08:08:12;5.95;;;5.45;;
21432;SDS011;18592;49.708;10.900;2023-08-17T08:10:19;6.45;;;5.30;;
21432;SDS011;18592;49.708;10.900;2023-08-17T08:12:34;5.85;;;5.35;;
21432;SDS011;18592;49.708;10.900;2023-08-17T08:14:35;6.03;;;5.53;;
21432;SDS011;18592;49.708;10.900;2023-08-17T08:16:35;5.75;;;5.25;;
21432;SDS011;18592;49.708;10.900;2023-08-17T08:18:36;6.47;;;5.88;;
21432;SDS011;18592;49.708;10.900;2023-08-17T08:20:37;6.30;;;5.78;;
21432;SDS011;18592;49.708;10.900;2023-08-17T08:22:38;6.18;;;5.68;;
21432;SDS011;18592;49.708;10.900;2023-08-17T08:24:38;5.50;;;5.10;;
21432;SDS011;18592;49.708;10.900;2023-08-17T08:26:41;5.43;;;5.03;;
21432;SDS011;18592;49.708;10.900;2023-08-17T08:28:41;5.43;;;5.03;;
21432;SDS011;18592;49.708;10.900;2023-08-17T08:31:00;5.60;;;5.10;;
21432;SDS011;18592;49.708;10.900;2023-08-17T08:33:02;5.88;;;5.38;;
21432;SDS011;18592;49.708;10.900;2023-08-17T08:35:03;6.72;;;5.50;;
21432;SDS011;18592;49.708;10.900;2023-08-17T08:37:03;5.95;;;5.32;;
21432;SDS011;18592;49.708;10.900;2023-08-17T08:39:04;5.75;;;5.15;;
21432;SDS011;18592;49.708;10.900;2023-08-17T08:41:08;5.82;;;4.75;;
21432;SDS011;18592;49.708;10.900;2023-08-17T08:43:09;5.60;;;5.10;;
21432;SDS011;18592;49.708;10.900;2023-08-17T08:45:11;6.00;;;5.50;;
21432;SDS011;18592;49.708;10.900;2023-08-17T08:47:11;5.70;;;4.82;;
21432;SDS011;18592;49.708;10.900;2023-08-17T08:49:13;5.43;;;4.80;;
21432;SDS011;18592;49.708;10.900;2023-08-17T08:51:24;6.28;;;5.00;;
21432;SDS011;18592;49.708;10.900;2023-08-17T08:53:31;5.70;;;4.50;;
21432;SDS011;18592;49.708;10.900;2023-08-17T08:55:37;5.45;;;4.80;;
21432;SDS011;18592;49.708;10.900;2023-08-17T08:57:41;6.35;;;4.28;;
21432;SDS011;18592;49.708;10.900;2023-08-17T08:59:43;5.85;;;4.72;;
21432;SDS011;18592;49.708;10.900;2023-08-17T09:01:46;5.50;;;4.95;;
21432;SDS011;18592;49.708;10.900;2023-08-17T09:03:54;6.47;;;4.80;;
21432;SDS011;18592;49.708;10.900;2023-08-17T09:05:56;10.13;;;5.35;;
21432;SDS011;18592;49.708;10.900;2023-08-17T09:07:58;5.68;;;5.18;;
21432;SDS011;18592;49.708;10.900;2023-08-17T09:09:59;5.32;;;4.70;;
21432;SDS011;18592;49.708;10.900;2023-08-17T09:11:59;6.80;;;4.78;;
21432;SDS011;18592;49.708;10.900;2023-08-17T09:14:00;6.30;;;5.43;;
21432;SDS011;18592;49.708;10.900;2023-08-17T09:16:00;5.70;;;4.60;;
21432;SDS011;18592;49.708;10.900;2023-08-17T09:18:01;7.10;;;4.70;;
21432;SDS011;18592;49.708;10.900;2023-08-17T09:20:05;5.50;;;4.95;;
21432;SDS011;18592;49.708;10.900;2023-08-17T09:22:07;6.55;;;5.07;;
21432;SDS011;18592;49.708;10.900;2023-08-17T09:24:19;5.53;;;4.90;;
21432;SDS011;18592;49.708;10.900;2023-08-17T09:26:22;5.88;;;4.60;;
21432;SDS011;18592;49.708;10.900;2023-08-17T09:28:26;6.80;;;5.13;;
21432;SDS011;18592;49.708;10.900;2023-08-17T09:30:33;6.32;;;4.90;;
21432;SDS011;18592;49.708;10.900;2023-08-17T09:32:33;5.85;;;5.13;;
21432;SDS011;18592;49.708;10.900;2023-08-17T09:34:33;5.40;;;4.30;;
21432;SDS011;18592;49.708;10.900;2023-08-17T09:36:37;8.85;;;4.78;;
21432;SDS011;18592;49.708;10.900;2023-08-17T09:38:39;5.63;;;4.80;;
21432;SDS011;18592;49.708;10.900;2023-08-17T09:40:39;5.35;;;4.70;;
21432;SDS011;18592;49.708;10.900;2023-08-17T09:42:40;5.28;;;4.80;;
21432;SDS011;18592;49.708;10.900;2023-08-17T09:44:41;5.50;;;5.00;;
21432;SDS011;18592;49.708;10.900;2023-08-17T09:46:57;4.90;;;4.40;;
21432;SDS011;18592;49.708;10.900;2023-08-17T09:48:58;5.47;;;4.97;;
21432;SDS011;18592;49.708;10.900;2023-08-17T09:50:58;6.20;;;5.10;;
21432;SDS011;18592;49.708;10.900;2023-08-17T09:53:00;5.32;;;4.93;;
21432;SDS011;18592;49.708;10.900;2023-08-17T09:55:01;5.32;;;4.93;;
21432;SDS011;18592;49.708;10.900;2023-08-17T09:57:09;4.70;;;4.32;;
21432;SDS011;18592;49.708;10.900;2023-08-17T09:59:09;5.63;;;5.00;;
21432;SDS011;18592;49.708;10.900;2023-08-17T10:01:10;5.82;;;5.32;;
21432;SDS011;18592;49.708;10.900;2023-08-17T10:03:13;5.80;;;5.15;;
21432;SDS011;18592;49.708;10.900;2023-08-17T10:05:20;7.43;;;5.30;;
21432;SDS011;18592;49.708;10.900;2023-08-17T10:07:22;5.82;;;5.32;;
21432;SDS011;18592;49.708;10.900;2023-08-17T10:09:28;5.13;;;4.72;;
21432;SDS011;18592;49.708;10.900;2023-08-17T10:11:35;5.05;;;4.60;;
21432;SDS011;18592;49.708;10.900;2023-08-17T10:13:40;5.25;;;4.45;;
21432;SDS011;18592;49.708;10.900;2023-08-17T10:16:07;5.05;;;4.57;;
21432;SDS011;18592;49.708;10.900;2023-08-17T10:18:22;5.32;;;4.70;;
21432;SDS011;18592;49.708;10.900;2023-08-17T10:20:31;5.30;;;4.70;;
21432;SDS011;18592;49.708;10.900;2023-08-17T10:22:48;5.60;;;4.90;;
21432;SDS011;18592;49.708;10.900;2023-08-17T10:25:00;5.38;;;4.88;;
21432;SDS011;18592;49.708;10.900;2023-08-17T10:27:02;5.05;;;4.55;;
21432;SDS011;18592;49.708;10.900;2023-08-17T10:29:03;5.28;;;4.88;;
21432;SDS011;18592;49.708;10.900;2023-08-17T10:31:17;5.70;;;5.10;;
21432;SDS011;18592;49.708;10.900;2023-08-17T10:33:17;5.30;;;4.88;;
21432;SDS011;18592;49.708;10.900;2023-08-17T10:35:19;5.10;;;4.68;;
21432;SDS011;18592;49.708;10.900;2023-08-17T10:37:20;5.30;;;4.90;;
21432;SDS011;18592;49.708;10.900;2023-08-17T10:39:22;6.53;;;5.13;;
21432;SDS011;18592;49.708;10.900;2023-08-17T10:41:23;5.45;;;4.95;;
21432;SDS011;18592;49.708;10.900;2023-08-17T10:43:32;5.45;;;5.00;;
21432;SDS011;18592;49.708;10.900;2023-08-17T10:45:36;5.43;;;5.03;;
21432;SDS011;18592;49.708;10.900;2023-08-17T10:47:38;4.85;;;4.47;;
21432;SDS011;18592;49.708;10.900;2023-08-17T10:49:39;4.88;;;4.53;;
21432;SDS011;18592;49.708;10.900;2023-08-17T10:51:42;5.50;;;5.00;;
21432;SDS011;18592;49.708;10.900;2023-08-17T10:54:03;5.10;;;4.70;;
21432;SDS011;18592;49.708;10.900;2023-08-17T10:56:06;5.15;;;4.65;;
21432;SDS011;18592;49.708;10.900;2023-08-17T10:58:08;5.35;;;4.85;;
21432;SDS011;18592;49.708;10.900;2023-08-17T11:00:15;4.63;;;4.25;;
21432;SDS011;18592;49.708;10.900;2023-08-17T11:02:32;5.15;;;4.72;;
21432;SDS011;18592;49.708;10.900;2023-08-17T11:04:32;5.82;;;5.32;;
21432;SDS011;18592;49.708;10.900;2023-08-17T11:06:33;5.75;;;5.25;;
21432;SDS011;18592;49.708;10.900;2023-08-17T11:08:38;5.35;;;4.95;;
21432;SDS011;18592;49.708;10.900;2023-08-17T11:10:56;5.55;;;4.72;;
21432;SDS011;18592;49.708;10.900;2023-08-17T11:13:04;4.95;;;4.55;;
21432;SDS011;18592;49.708;10.900;2023-08-17T11:15:05;5.32;;;4.82;;
21432;SDS011;18592;49.708;10.900;2023-08-17T11:17:05;4.75;;;4.35;;
21432;SDS011;18592;49.708;10.900;2023-08-17T11:19:09;4.90;;;4.53;;
21432;SDS011;18592;49.708;10.900;2023-08-17T11:21:14;5.60;;;5.20;;
21432;SDS011;18592;49.708;10.900;2023-08-17T11:23:15;5.90;;;5.30;;
21432;SDS011;18592;49.708;10.900;2023-08-17T11:25:18;5.25;;;4.85;;
21432;SDS011;18592;49.708;10.900;2023-08-17T11:27:19;5.20;;;4.80;;
21432;SDS011;18592;49.708;10.900;2023-08-17T11:29:20;5.32;;;4.93;;
21432;SDS011;18592;49.708;10.900;2023-08-17T11:31:20;5.00;;;4.60;;
21432;SDS011;18592;49.708;10.900;2023-08-17T11:33:21;5.15;;;4.75;;
21432;SDS011;18592;49.708;10.900;2023-08-17T11:35:36;5.50;;;4.45;;
21432;SDS011;18592;49.708;10.900;2023-08-17T11:37:37;5.03;;;4.63;;
21432;SDS011;18592;49.708;10.900;2023-08-17T11:39:37;5.28;;;4.88;;
21432;SDS011;18592;49.708;10.900;2023-08-17T11:41:39;5.38;;;4.97;;
21432;SDS011;18592;49.708;10.900;2023-08-17T11:43:40;4.82;;;4.47;;
21432;SDS011;18592;49.708;10.900;2023-08-17T11:45:42;4.90;;;4.50;;
21432;SDS011;18592;49.708;10.900;2023-08-17T11:47:42;4.90;;;4.50;;
21432;SDS011;18592;49.708;10.900;2023-08-17T11:49:47;4.60;;;4.30;;
21432;SDS011;18592;49.708;10.900;2023-08-17T11:51:51;5.38;;;4.90;;
21432;SDS011;18592;49.708;10.900;2023-08-17T11:53:51;4.70;;;4.30;;
21432;SDS011;18592;49.708;10.900;2023-08-17T11:55:52;4.70;;;4.18;;
21432;SDS011;18592;49.708;10.900;2023-08-17T11:57:53;5.03;;;4.47;;
21432;SDS011;18592;49.708;10.900;2023-08-17T11:59:55;4.22;;;3.92;;
21432;SDS011;18592;49.708;10.900;2023-08-17T12:01:57;4.25;;;3.85;;
21432;SDS011;18592;49.708;10.900;2023-08-17T12:03:58;4.10;;;3.80;;
21432;SDS011;18592;49.708;10.900;2023-08-17T12:05:58;4.30;;;3.97;;
21432;SDS011;18592;49.708;10.900;2023-08-17T12:07:59;4.22;;;3.92;;
21432;SDS011;18592;49.708;10.900;2023-08-17T12:10:04;4.50;;;4.20;;
21432;SDS011;18592;49.708;10.900;2023-08-17T12:12:05;4.22;;;3.92;;
21432;SDS011;18592;49.708;10.900;2023-08-17T12:14:21;4.38;;;4.07;;
21432;SDS011;18592;49.708;10.900;2023-08-17T12:16:22;4.30;;;4.00;;
21432;SDS011;18592;49.708;10.900;2023-08-17T12:18:22;4.70;;;4.40;;
21432;SDS011;18592;49.708;10.900;2023-08-17T12:20:23;4.40;;;4.10;;
21432;SDS011;18592;49.708;10.900;2023-08-17T12:22:25;4.97;;;4.45;;
21432;SDS011;18592;49.708;10.900;2023-08-17T12:24:26;5.47;;;5.07;;
21432;SDS011;18592;49.708;10.900;2023-08-17T12:26:30;5.20;;;4.82;;